Auburn, IL (62615)

10:02 PM CST on February 09, 2016 (GMT -0600)
Thomas R. Beynon Sub. #1 | | Change Station
CLOSE
Current Station
Personal Weather Station
Location: Divernon, IL
Elevation: 623 ft
Nearby Weather Stations

Elev 623 ft 39.56 °N, 89.65 °W | Updated 30 minutes ago

Partly Cloudy
Partly Cloudy
14.4 °F
Feels Like 3 °F
N
8.9
Wind Variable Wind from West

Today
High -- | Low -- °F
--% Chance of Precip.
Yesterday
High -- | Low -- °F
Precip. -- in
Pressure 30.12 in
Visibility 10.0 miles
Clouds Mostly Cloudy 2700 ft
Windchill 3 °F
Dew Point 8 °F
Humidity 76%
Rainfall 0.00 in
Snow Depth Not available.
6:58 AM 5:27 PM
Waxing Crescent, 3% visible
METAR KSPI 100352Z AUTO 31016G23KT 10SM BKN027 M09/M15 A3009 RMK AO2 PK WND 32026/0254 SLP200 T10891150
Pressure 30.12 in
Visibility 10.0 miles
Clouds Mostly Cloudy 2700 ft
Windchill 3 °F
Dew Point 8 °F
Humidity 76%
Rainfall 0.00 in
Snow Depth Not available.
6:58 AM 5:27 PM
Waxing Crescent, 3% visible
METAR KSPI 100352Z AUTO 31016G23KT 10SM BKN027 M09/M15 A3009 RMK AO2 PK WND 32026/0254 SLP200 T10891150

10-Day Weather Forecast

Almanac

Astronomy

Feb. 09, 2016 Rise Set
Actual Time
Civil Twilight
Nautical Twilight
Astronomical Twilight
Moon
Length of Visible Light
Length of Day
Tomorrow will be .
, % of the Moon is Illuminated

Today's Extremes

State Highs State Lows

Community

WunderPhotos

Upload Photos

1,891,795 photos uploaded!

WunderBlog® & News

Nearby

Air Quality

  Air Quality AQ Index Pollutant
Not available.

Snow Depth

Station Depth Elevation

Earthquake Activity

City Distance Mag. Time & Date
Minimum magnitude displayed is 2.5.

Coastal Water Temperatures

Place Temperature

Stations

Nearby Weather Stations

Station Location Temp. Windchill Dew Point Humidity Wind Precip. Elev Updated Type
                   

Watches & Warnings

There are currently no watches in effect.